JAL627 RJFF-RKSI
Flight info
| Callsign | JAL627 |
|---|---|
| Flight time | 0h 54m |
| Altitude | 40000 |
| Route | DGC G339 BEETL Y208 INVOK Z91 PSN Y782 BITUX Z53 BASEM Y685 GUKDO GUKDO2E |
| Aircraft | A359/H-SDE2E3GHIJ3J4J5LM1ORWXY/LB1D1 |
Departure
| Time | 2026-05-07 14:39 |
|---|---|
| Airport | Fukuoka Airport (RJFF) |
Arrival
| Time | 2026-05-07 15:33 |
|---|---|
| Airport | Incheon International Airport (RKSI) |
| Time | Latitude | Longitude | Altitude | Speed | Heading |
|---|---|---|---|---|---|
| 2026-05-07 14:16 | 33.59503 | 130.44863 | 29 ft | 0 kts | 51° |
| 2026-05-07 14:22 | 33.59492 | 130.44845 | 30 ft | 4 kts | 67° |
| 2026-05-07 14:23 | 33.59479 | 130.44790 | 28 ft | 4 kts | 138° |
| 2026-05-07 14:23 | 33.59501 | 130.44775 | 27 ft | 2 kts | 151° |
| 2026-05-07 14:23 | 33.59503 | 130.44773 | 27 ft | 0 kts | 150° |
| 2026-05-07 14:25 | 33.59477 | 130.44792 | 28 ft | 10 kts | 147° |
| 2026-05-07 14:26 | 33.59390 | 130.44844 | 31 ft | 19 kts | 163° |
| 2026-05-07 14:26 | 33.59261 | 130.44856 | 31 ft | 21 kts | 174° |
| 2026-05-07 14:26 | 33.59124 | 130.44932 | 32 ft | 23 kts | 149° |
| 2026-05-07 14:26 | 33.58982 | 130.45031 | 34 ft | 25 kts | 150° |
| 2026-05-07 14:27 | 33.58829 | 130.45135 | 35 ft | 26 kts | 150° |
| 2026-05-07 14:27 | 33.58664 | 130.45245 | 36 ft | 28 kts | 150° |
| 2026-05-07 14:27 | 33.58490 | 130.45363 | 38 ft | 30 kts | 150° |
| 2026-05-07 14:27 | 33.58313 | 130.45484 | 39 ft | 26 kts | 150° |
| 2026-05-07 14:28 | 33.58150 | 130.45596 | 40 ft | 28 kts | 150° |
| 2026-05-07 14:28 | 33.57976 | 130.45716 | 42 ft | 30 kts | 150° |
| 2026-05-07 14:28 | 33.57795 | 130.45840 | 44 ft | 31 kts | 150° |
| 2026-05-07 14:28 | 33.57663 | 130.45895 | 45 ft | 16 kts | 205° |
| 2026-05-07 14:29 | 33.57629 | 130.45860 | 45 ft | 0 kts | 227° |
| 2026-05-07 14:36 | 33.57614 | 130.45838 | 46 ft | 10 kts | 234° |
| 2026-05-07 14:37 | 33.57604 | 130.45739 | 43 ft | 13 kts | 301° |
| 2026-05-07 14:37 | 33.57668 | 130.45699 | 45 ft | 0 kts | 330° |
| 2026-05-07 14:38 | 33.57786 | 130.45622 | 45 ft | 49 kts | 331° |
| 2026-05-07 14:38 | 33.58118 | 130.45388 | 41 ft | 105 kts | 332° |
| 2026-05-07 14:38 | 33.58405 | 130.45207 | 38 ft | 133 kts | 332° |
| 2026-05-07 14:39 | 33.58997 | 130.44736 | 138 ft | 163 kts | 327° |
| 2026-05-07 14:39 | 33.59971 | 130.43910 | 749 ft | 179 kts | 325° |
| 2026-05-07 14:39 | 33.61040 | 130.43062 | 1536 ft | 193 kts | 324° |
| 2026-05-07 14:39 | 33.62298 | 130.42257 | 2117 ft | 214 kts | 330° |
| 2026-05-07 14:40 | 33.63679 | 130.41443 | 2801 ft | 229 kts | 329° |
| 2026-05-07 14:40 | 33.65160 | 130.40522 | 3339 ft | 252 kts | 328° |
| 2026-05-07 14:40 | 33.66737 | 130.39501 | 4104 ft | 263 kts | 327° |
| 2026-05-07 14:40 | 33.68307 | 130.38340 | 4994 ft | 267 kts | 322° |
| 2026-05-07 14:41 | 33.69817 | 130.37032 | 5986 ft | 269 kts | 319° |
| 2026-05-07 14:41 | 33.71291 | 130.35645 | 7017 ft | 270 kts | 317° |
| 2026-05-07 14:41 | 33.72723 | 130.34251 | 8074 ft | 270 kts | 316° |
| 2026-05-07 14:41 | 33.74182 | 130.32820 | 9078 ft | 273 kts | 316° |
| 2026-05-07 14:42 | 33.75654 | 130.31384 | 9718 ft | 275 kts | 316° |
| 2026-05-07 14:42 | 33.77155 | 130.29932 | 9974 ft | 276 kts | 316° |
| 2026-05-07 14:42 | 33.78655 | 130.28493 | 10014 ft | 278 kts | 316° |
| 2026-05-07 14:42 | 33.80126 | 130.27090 | 10008 ft | 279 kts | 316° |
| 2026-05-07 14:43 | 33.81648 | 130.25642 | 10039 ft | 279 kts | 316° |
| 2026-05-07 14:43 | 33.83186 | 130.24178 | 10256 ft | 291 kts | 316° |
| 2026-05-07 14:43 | 33.84812 | 130.22619 | 10596 ft | 315 kts | 317° |
| 2026-05-07 14:43 | 33.86555 | 130.20948 | 11243 ft | 328 kts | 317° |
| 2026-05-07 14:44 | 33.88363 | 130.19226 | 12068 ft | 335 kts | 317° |
| 2026-05-07 14:44 | 33.90206 | 130.17474 | 12915 ft | 341 kts | 316° |
| 2026-05-07 14:44 | 33.92082 | 130.15690 | 13775 ft | 346 kts | 316° |
| 2026-05-07 14:44 | 33.93972 | 130.13888 | 14572 ft | 350 kts | 316° |
| 2026-05-07 14:45 | 33.95894 | 130.12058 | 15363 ft | 354 kts | 315° |
| 2026-05-07 14:45 | 33.97840 | 130.10201 | 16131 ft | 359 kts | 315° |
| 2026-05-07 14:45 | 33.99801 | 130.08326 | 16893 ft | 364 kts | 314° |
| 2026-05-07 14:45 | 34.01783 | 130.06430 | 17582 ft | 368 kts | 314° |
| 2026-05-07 14:46 | 34.03799 | 130.04498 | 17908 ft | 372 kts | 314° |
| 2026-05-07 14:46 | 34.05824 | 130.02558 | 17967 ft | 373 kts | 313° |
| 2026-05-07 14:46 | 34.07861 | 130.00604 | 18333 ft | 378 kts | 313° |
| 2026-05-07 14:46 | 34.09930 | 129.98619 | 19032 ft | 380 kts | 314° |
| 2026-05-07 14:47 | 34.12003 | 129.96631 | 19771 ft | 382 kts | 314° |
| 2026-05-07 14:47 | 34.14092 | 129.94625 | 20472 ft | 386 kts | 314° |
| 2026-05-07 14:47 | 34.16193 | 129.92606 | 21151 ft | 389 kts | 315° |
| 2026-05-07 14:47 | 34.18293 | 129.90585 | 21803 ft | 393 kts | 315° |
| 2026-05-07 14:48 | 34.20474 | 129.88486 | 22502 ft | 397 kts | 315° |
| 2026-05-07 14:48 | 34.22615 | 129.86423 | 23163 ft | 401 kts | 315° |
| 2026-05-07 14:48 | 34.24812 | 129.84307 | 23808 ft | 405 kts | 315° |
| 2026-05-07 14:48 | 34.27012 | 129.82189 | 24385 ft | 409 kts | 315° |
| 2026-05-07 14:49 | 34.29247 | 129.80052 | 24995 ft | 413 kts | 315° |
| 2026-05-07 14:49 | 34.31510 | 129.77893 | 25579 ft | 416 kts | 315° |
| 2026-05-07 14:49 | 34.33791 | 129.75715 | 26144 ft | 420 kts | 315° |
| 2026-05-07 14:49 | 34.36095 | 129.73512 | 26719 ft | 424 kts | 315° |
| 2026-05-07 14:50 | 34.38417 | 129.71290 | 27290 ft | 428 kts | 315° |
| 2026-05-07 14:50 | 34.40762 | 129.69043 | 27840 ft | 431 kts | 315° |
| 2026-05-07 14:50 | 34.43114 | 129.66789 | 28385 ft | 435 kts | 315° |
| 2026-05-07 14:50 | 34.45490 | 129.64508 | 28928 ft | 439 kts | 315° |
| 2026-05-07 14:51 | 34.47884 | 129.62209 | 29470 ft | 443 kts | 315° |
| 2026-05-07 14:51 | 34.49616 | 129.60545 | 29838 ft | 445 kts | 315° |
| 2026-05-07 14:51 | 34.51586 | 129.58652 | 30219 ft | 448 kts | 315° |
| 2026-05-07 14:51 | 34.54033 | 129.56299 | 30735 ft | 450 kts | 315° |
| 2026-05-07 14:52 | 34.56487 | 129.53939 | 31302 ft | 451 kts | 314° |
| 2026-05-07 14:52 | 34.58937 | 129.51582 | 31816 ft | 452 kts | 314° |
| 2026-05-07 14:52 | 34.61391 | 129.49216 | 32263 ft | 454 kts | 314° |
| 2026-05-07 14:52 | 34.63872 | 129.46820 | 32674 ft | 457 kts | 314° |
| 2026-05-07 14:53 | 34.66364 | 129.44412 | 33074 ft | 459 kts | 314° |
| 2026-05-07 14:53 | 34.68858 | 129.41995 | 33466 ft | 461 kts | 314° |
| 2026-05-07 14:53 | 34.71354 | 129.39578 | 33844 ft | 464 kts | 314° |
| 2026-05-07 14:53 | 34.73887 | 129.37127 | 34169 ft | 466 kts | 314° |
| 2026-05-07 14:54 | 34.76426 | 129.34669 | 34500 ft | 468 kts | 314° |
| 2026-05-07 14:54 | 34.78952 | 129.32222 | 34759 ft | 471 kts | 314° |
| 2026-05-07 14:54 | 34.81512 | 129.29751 | 35205 ft | 469 kts | 314° |
| 2026-05-07 14:54 | 34.84049 | 129.27309 | 35661 ft | 467 kts | 314° |
| 2026-05-07 14:55 | 34.86586 | 129.24863 | 35878 ft | 467 kts | 314° |
| 2026-05-07 14:55 | 34.89125 | 129.22412 | 35920 ft | 465 kts | 313° |
| 2026-05-07 14:55 | 34.94176 | 129.17522 | 35909 ft | 466 kts | 313° |
| 2026-05-07 14:56 | 34.99248 | 129.12601 | 35903 ft | 466 kts | 313° |
| 2026-05-07 14:56 | 35.04219 | 129.07772 | 35903 ft | 467 kts | 313° |
| 2026-05-07 14:57 | 35.06984 | 129.05082 | 35903 ft | 467 kts | 313° |
| 2026-05-07 14:57 | 35.10651 | 129.01565 | 35899 ft | 470 kts | 316° |
| 2026-05-07 14:58 | 35.16400 | 128.97504 | 35915 ft | 486 kts | 324° |
| 2026-05-07 14:58 | 35.22541 | 128.93802 | 35912 ft | 497 kts | 326° |
| 2026-05-07 14:59 | 35.28785 | 128.90150 | 35910 ft | 498 kts | 326° |
| 2026-05-07 14:59 | 35.35033 | 128.86486 | 35908 ft | 497 kts | 326° |
| 2026-05-07 15:00 | 35.41223 | 128.82828 | 35906 ft | 497 kts | 326° |
| 2026-05-07 15:00 | 35.47422 | 128.79152 | 35907 ft | 496 kts | 326° |
| 2026-05-07 15:01 | 35.53629 | 128.75479 | 35900 ft | 495 kts | 326° |
| 2026-05-07 15:01 | 35.59829 | 128.71788 | 35898 ft | 494 kts | 326° |
| 2026-05-07 15:02 | 35.60254 | 128.71534 | 35900 ft | 494 kts | 326° |
| 2026-05-07 15:02 | 35.63895 | 128.69353 | 35906 ft | 494 kts | 325° |
| 2026-05-07 15:03 | 35.70026 | 128.65668 | 35941 ft | 495 kts | 325° |
| 2026-05-07 15:03 | 35.76207 | 128.61963 | 35904 ft | 493 kts | 324° |
| 2026-05-07 15:04 | 35.81956 | 128.57662 | 35913 ft | 474 kts | 311° |
| 2026-05-07 15:04 | 35.86806 | 128.52276 | 35884 ft | 468 kts | 308° |
| 2026-05-07 15:05 | 35.91468 | 128.46721 | 35897 ft | 466 kts | 307° |
| 2026-05-07 15:05 | 35.96116 | 128.41129 | 35918 ft | 467 kts | 307° |
| 2026-05-07 15:06 | 36.00786 | 128.35543 | 35950 ft | 467 kts | 307° |
| 2026-05-07 15:06 | 36.05451 | 128.29975 | 35919 ft | 466 kts | 307° |
| 2026-05-07 15:07 | 36.10056 | 128.24485 | 35583 ft | 453 kts | 306° |
| 2026-05-07 15:07 | 36.12317 | 128.21787 | 35336 ft | 451 kts | 306° |
| 2026-05-07 15:07 | 36.14568 | 128.19085 | 35115 ft | 451 kts | 306° |
| 2026-05-07 15:08 | 36.16817 | 128.16380 | 34888 ft | 451 kts | 306° |
| 2026-05-07 15:08 | 36.19064 | 128.13674 | 34657 ft | 452 kts | 306° |
| 2026-05-07 15:08 | 36.21323 | 128.10951 | 34420 ft | 453 kts | 306° |
| 2026-05-07 15:08 | 36.23621 | 128.08279 | 34187 ft | 460 kts | 309° |
| 2026-05-07 15:09 | 36.26212 | 128.05880 | 33959 ft | 473 kts | 317° |
| 2026-05-07 15:09 | 36.29129 | 128.03938 | 33710 ft | 488 kts | 326° |
| 2026-05-07 15:09 | 36.32430 | 128.02562 | 33440 ft | 505 kts | 336° |
| 2026-05-07 15:09 | 36.35927 | 128.01798 | 33198 ft | 513 kts | 341° |
| 2026-05-07 15:10 | 36.39477 | 128.01239 | 32948 ft | 516 kts | 343° |
| 2026-05-07 15:10 | 36.43058 | 128.00768 | 32685 ft | 518 kts | 344° |
| 2026-05-07 15:10 | 36.46652 | 128.00332 | 32433 ft | 519 kts | 344° |
| 2026-05-07 15:10 | 36.50245 | 127.99889 | 32178 ft | 519 kts | 344° |
| 2026-05-07 15:11 | 36.53844 | 127.99436 | 31928 ft | 520 kts | 344° |
| 2026-05-07 15:11 | 36.57407 | 127.98976 | 31703 ft | 520 kts | 344° |
| 2026-05-07 15:11 | 36.60878 | 127.98520 | 31457 ft | 518 kts | 344° |
| 2026-05-07 15:11 | 36.64460 | 127.98047 | 31217 ft | 516 kts | 343° |
| 2026-05-07 15:12 | 36.68025 | 127.97572 | 30980 ft | 514 kts | 343° |
| 2026-05-07 15:12 | 36.71576 | 127.97079 | 30727 ft | 512 kts | 343° |
| 2026-05-07 15:12 | 36.75085 | 127.96563 | 30544 ft | 507 kts | 341° |
| 2026-05-07 15:12 | 36.78485 | 127.95650 | 30325 ft | 493 kts | 332° |
| 2026-05-07 15:13 | 36.81641 | 127.94181 | 30105 ft | 477 kts | 323° |
| 2026-05-07 15:13 | 36.84471 | 127.92229 | 29560 ft | 460 kts | 315° |
| 2026-05-07 15:13 | 36.86942 | 127.89815 | 28925 ft | 443 kts | 306° |
| 2026-05-07 15:13 | 36.88998 | 127.87056 | 28294 ft | 427 kts | 298° |
| 2026-05-07 15:14 | 36.90762 | 127.84137 | 27692 ft | 420 kts | 296° |
| 2026-05-07 15:14 | 36.92444 | 127.81177 | 27085 ft | 415 kts | 296° |
| 2026-05-07 15:14 | 36.94075 | 127.78228 | 26501 ft | 411 kts | 295° |
| 2026-05-07 15:14 | 36.95675 | 127.75317 | 25924 ft | 407 kts | 295° |
| 2026-05-07 15:15 | 36.97283 | 127.72424 | 25363 ft | 405 kts | 296° |
| 2026-05-07 15:15 | 36.99229 | 127.69805 | 24836 ft | 419 kts | 310° |
| 2026-05-07 15:15 | 37.01696 | 127.67765 | 24295 ft | 429 kts | 320° |
| 2026-05-07 15:15 | 37.04322 | 127.66001 | 23805 ft | 427 kts | 321° |
| 2026-05-07 15:16 | 37.06951 | 127.64303 | 23219 ft | 424 kts | 321° |
| 2026-05-07 15:16 | 37.09552 | 127.62624 | 22579 ft | 421 kts | 321° |
| 2026-05-07 15:16 | 37.12133 | 127.60943 | 21956 ft | 416 kts | 321° |
| 2026-05-07 15:16 | 37.14684 | 127.59268 | 21346 ft | 411 kts | 321° |
| 2026-05-07 15:17 | 37.17196 | 127.57607 | 20742 ft | 406 kts | 321° |
| 2026-05-07 15:17 | 37.18847 | 127.56508 | 20361 ft | 404 kts | 321° |
| 2026-05-07 15:17 | 37.21311 | 127.54855 | 19778 ft | 400 kts | 321° |
| 2026-05-07 15:17 | 37.23730 | 127.53207 | 19211 ft | 394 kts | 320° |
| 2026-05-07 15:18 | 37.25825 | 127.51173 | 18668 ft | 371 kts | 303° |
| 2026-05-07 15:18 | 37.27161 | 127.48573 | 18099 ft | 348 kts | 284° |
| 2026-05-07 15:18 | 37.27644 | 127.45696 | 17496 ft | 332 kts | 266° |
| 2026-05-07 15:18 | 37.27521 | 127.42850 | 16871 ft | 326 kts | 262° |
| 2026-05-07 15:19 | 37.27277 | 127.40033 | 16271 ft | 323 kts | 261° |
| 2026-05-07 15:19 | 37.27014 | 127.37245 | 15666 ft | 321 kts | 261° |
| 2026-05-07 15:19 | 37.26641 | 127.33596 | 14888 ft | 318 kts | 261° |
| 2026-05-07 15:19 | 37.26439 | 127.31747 | 14497 ft | 316 kts | 261° |
| 2026-05-07 15:20 | 37.26023 | 127.28173 | 13758 ft | 313 kts | 261° |
| 2026-05-07 15:20 | 37.25800 | 127.26354 | 13326 ft | 312 kts | 261° |
| 2026-05-07 15:20 | 37.25464 | 127.23661 | 12702 ft | 311 kts | 261° |
| 2026-05-07 15:20 | 37.25122 | 127.20992 | 12095 ft | 310 kts | 261° |
| 2026-05-07 15:21 | 37.24773 | 127.18331 | 11491 ft | 309 kts | 261° |
| 2026-05-07 15:21 | 37.24422 | 127.15709 | 11089 ft | 302 kts | 261° |
| 2026-05-07 15:21 | 37.24080 | 127.13181 | 10988 ft | 287 kts | 261° |
| 2026-05-07 15:21 | 37.23755 | 127.10810 | 10972 ft | 269 kts | 261° |
| 2026-05-07 15:22 | 37.23443 | 127.08548 | 10980 ft | 259 kts | 261° |
| 2026-05-07 15:22 | 37.23138 | 127.06354 | 10798 ft | 258 kts | 261° |
| 2026-05-07 15:22 | 37.22830 | 127.04155 | 10472 ft | 256 kts | 261° |
| 2026-05-07 15:22 | 37.22521 | 127.01970 | 10142 ft | 253 kts | 261° |
| 2026-05-07 15:23 | 37.22210 | 126.99808 | 9797 ft | 250 kts | 261° |
| 2026-05-07 15:23 | 37.21898 | 126.97671 | 9425 ft | 248 kts | 261° |
| 2026-05-07 15:23 | 37.21584 | 126.95556 | 9051 ft | 245 kts | 261° |
| 2026-05-07 15:23 | 37.21269 | 126.93462 | 8690 ft | 243 kts | 261° |
| 2026-05-07 15:24 | 37.20954 | 126.91389 | 8330 ft | 241 kts | 261° |
| 2026-05-07 15:24 | 37.20634 | 126.89330 | 7960 ft | 240 kts | 261° |
| 2026-05-07 15:24 | 37.20308 | 126.87276 | 7568 ft | 241 kts | 261° |
| 2026-05-07 15:24 | 37.19975 | 126.85212 | 7145 ft | 242 kts | 261° |
| 2026-05-07 15:25 | 37.19646 | 126.83147 | 6734 ft | 242 kts | 261° |
| 2026-05-07 15:25 | 37.19310 | 126.81069 | 6319 ft | 244 kts | 261° |
| 2026-05-07 15:25 | 37.18968 | 126.78982 | 5865 ft | 245 kts | 261° |
| 2026-05-07 15:25 | 37.18890 | 126.76875 | 5428 ft | 241 kts | 282° |
| 2026-05-07 15:26 | 37.19341 | 126.74852 | 4999 ft | 241 kts | 290° |
| 2026-05-07 15:26 | 37.19886 | 126.72857 | 4569 ft | 242 kts | 291° |
| 2026-05-07 15:26 | 37.20415 | 126.70848 | 4131 ft | 243 kts | 292° |
| 2026-05-07 15:26 | 37.20976 | 126.68856 | 3728 ft | 240 kts | 297° |
| 2026-05-07 15:27 | 37.21921 | 126.67260 | 3600 ft | 222 kts | 324° |
| 2026-05-07 15:27 | 37.23192 | 126.66295 | 3574 ft | 206 kts | 331° |
| 2026-05-07 15:27 | 37.24379 | 126.65384 | 3579 ft | 196 kts | 327° |
| 2026-05-07 15:27 | 37.25490 | 126.64405 | 3586 ft | 194 kts | 326° |
| 2026-05-07 15:28 | 37.26591 | 126.63423 | 3589 ft | 194 kts | 326° |
| 2026-05-07 15:28 | 37.27693 | 126.62436 | 3586 ft | 195 kts | 325° |
| 2026-05-07 15:28 | 37.28795 | 126.61448 | 3586 ft | 195 kts | 326° |
| 2026-05-07 15:28 | 37.29893 | 126.60462 | 3591 ft | 195 kts | 325° |
| 2026-05-07 15:29 | 37.30997 | 126.59474 | 3574 ft | 195 kts | 326° |
| 2026-05-07 15:29 | 37.32098 | 126.58499 | 3382 ft | 193 kts | 326° |
| 2026-05-07 15:29 | 37.33188 | 126.57536 | 3106 ft | 190 kts | 326° |
| 2026-05-07 15:29 | 37.34260 | 126.56583 | 2818 ft | 188 kts | 326° |
| 2026-05-07 15:30 | 37.35321 | 126.55639 | 2546 ft | 186 kts | 326° |
| 2026-05-07 15:30 | 37.36365 | 126.54713 | 2297 ft | 182 kts | 326° |
| 2026-05-07 15:30 | 37.37374 | 126.53817 | 2081 ft | 174 kts | 326° |
| 2026-05-07 15:30 | 37.38341 | 126.52958 | 1817 ft | 166 kts | 324° |
| 2026-05-07 15:31 | 37.39262 | 126.52138 | 1592 ft | 158 kts | 324° |
| 2026-05-07 15:31 | 37.40138 | 126.51358 | 1386 ft | 151 kts | 324° |
| 2026-05-07 15:31 | 37.40955 | 126.50631 | 1177 ft | 137 kts | 324° |
| 2026-05-07 15:31 | 37.41698 | 126.49970 | 1007 ft | 125 kts | 324° |
| 2026-05-07 15:32 | 37.42375 | 126.49368 | 838 ft | 116 kts | 323° |
| 2026-05-07 15:32 | 37.43032 | 126.48787 | 689 ft | 115 kts | 323° |
| 2026-05-07 15:32 | 37.43703 | 126.48218 | 538 ft | 118 kts | 323° |
| 2026-05-07 15:32 | 37.44382 | 126.47628 | 378 ft | 119 kts | 323° |
| 2026-05-07 15:33 | 37.45052 | 126.47004 | 216 ft | 119 kts | 321° |
| 2026-05-07 15:33 | 37.45720 | 126.46404 | 61 ft | 119 kts | 321° |
| 2026-05-07 15:33 | 37.46364 | 126.45824 | 32 ft | 105 kts | 324° |
| 2026-05-07 15:33 | 37.46771 | 126.45463 | 29 ft | 45 kts | 324° |
| 2026-05-07 15:34 | 37.47008 | 126.45252 | 31 ft | 40 kts | 324° |
| 2026-05-07 15:34 | 37.47222 | 126.45061 | 31 ft | 37 kts | 324° |
| 2026-05-07 15:34 | 37.47411 | 126.44857 | 29 ft | 36 kts | 304° |
| 2026-05-07 15:34 | 37.47451 | 126.44638 | 29 ft | 9 kts | 218° |
| 2026-05-07 15:35 | 37.47390 | 126.44644 | 30 ft | 6 kts | 168° |